Time;durP1;ratioP1;P1;durP2;ratioP2;P2;SDS_P1;SDS_P2;PMS_P1;PMS_P2;Temp;Humidity;BMP_temperature;BMP_pressure;BME280_temperature;BME280_humidity;BME280_pressure;Samples;Min_cycle;Max_cycle;Signal;HPM_P1;HPM_P2
2023/04/06 00:01:18;;;;;;;9.38;6.85;;;;;;;;;;5282071;28;20398;-72
2023/04/06 00:03:50;;;;;;;11.64;6.72;;;;;;;;;;5282441;28;20024;-72
2023/04/06 00:06:21;;;;;;;8.70;6.70;;;;;;;;;;5281878;28;20016;-72
2023/04/06 00:08:52;;;;;;;7.75;5.93;;;;;;;;;;5281906;28;20001;-72
2023/04/06 00:11:23;;;;;;;8.52;6.88;;;;;;;;;;5282368;28;20021;-71
2023/04/06 00:13:55;;;;;;;9.43;6.60;;;;;;;;;;5281360;28;20044;-71
2023/04/06 00:16:26;;;;;;;11.70;7.32;;;;;;;;;;5282240;28;20104;-71
2023/04/06 00:18:57;;;;;;;8.60;6.68;;;;;;;;;;5281964;28;20390;-71
2023/04/06 00:21:28;;;;;;;9.25;6.57;;;;;;;;;;5281239;28;20052;-71
2023/04/06 00:24:00;;;;;;;8.68;6.80;;;;;;;;;;5282152;28;20021;-71
2023/04/06 00:26:31;;;;;;;10.10;6.93;;;;;;;;;;5282262;28;20024;-72
2023/04/06 00:29:02;;;;;;;9.30;6.98;;;;;;;;;;5281431;28;20032;-71
2023/04/06 00:31:33;;;;;;;8.63;6.65;;;;;;;;;;5281933;28;20020;-71
2023/04/06 00:34:05;;;;;;;8.20;5.70;;;;;;;;;;5281781;28;20020;-71
2023/04/06 00:36:36;;;;;;;9.18;6.65;;;;;;;;;;5281150;28;20455;-71
2023/04/06 00:39:07;;;;;;;8.02;6.13;;;;;;;;;;5281796;28;20534;-72
2023/04/06 00:41:40;;;;;;;8.06;6.14;;;;;;;;;;5280944;28;20031;-72
2023/04/06 00:44:12;;;;;;;6.78;5.72;;;;;;;;;;5282055;28;20406;-71
2023/04/06 00:46:43;;;;;;;9.32;6.50;;;;;;;;;;5281475;28;20013;-71
2023/04/06 00:49:14;;;;;;;9.23;5.70;;;;;;;;;;5281471;28;20145;-71
2023/04/06 00:51:45;;;;;;;8.07;5.38;;;;;;;;;;5281637;28;20039;-71
2023/04/06 00:54:16;;;;;;;7.43;5.03;;;;;;;;;;5282182;28;20024;-71
2023/04/06 00:56:47;;;;;;;8.55;5.28;;;;;;;;;;5280530;28;20052;-71
2023/04/06 00:59:19;;;;;;;7.53;4.90;;;;;;;;;;5281797;28;20050;-72
2023/04/06 01:01:50;;;;;;;7.57;4.82;;;;;;;;;;5281345;28;20452;-72
2023/04/06 01:04:24;;;;;;;7.68;5.32;;;;;;;;;;5281181;28;20536;-72
2023/04/06 01:06:55;;;;;;;7.32;5.72;;;;;;;;;;5281333;28;20031;-72
2023/04/06 01:09:27;;;;;;;8.46;5.60;;;;;;;;;;5283197;28;20012;-71
2023/04/06 01:11:58;;;;;;;7.80;5.38;;;;;;;;;;5284980;28;20016;-71
2023/04/06 01:14:29;;;;;;;8.52;6.10;;;;;;;;;;5285753;28;20482;-72
2023/04/06 01:17:01;;;;;;;9.32;5.95;;;;;;;;;;5285001;28;20059;-71
2023/04/06 01:19:32;;;;;;;7.40;5.63;;;;;;;;;;5285500;28;20004;-71
2023/04/06 01:22:03;;;;;;;9.27;6.50;;;;;;;;;;5285122;28;20049;-71
2023/04/06 01:24:34;;;;;;;10.82;6.15;;;;;;;;;;5284821;28;20471;-71
2023/04/06 01:27:06;;;;;;;12.38;7.75;;;;;;;;;;5285335;28;20062;-72
2023/04/06 01:29:37;;;;;;;11.98;7.75;;;;;;;;;;5285474;28;20066;-72
2023/04/06 01:32:08;;;;;;;10.27;6.53;;;;;;;;;;5284796;28;20024;-72
2023/04/06 01:34:40;;;;;;;10.25;7.45;;;;;;;;;;5284712;28;20021;-72
2023/04/06 01:37:11;;;;;;;10.92;7.54;;;;;;;;;;5285577;28;20032;-71
2023/04/06 01:39:43;;;;;;;10.75;7.35;;;;;;;;;;5284333;28;20032;-72
2023/04/06 01:42:14;;;;;;;11.32;7.43;;;;;;;;;;5285473;28;20108;-72
2023/04/06 01:44:45;;;;;;;11.52;7.44;;;;;;;;;;5284928;28;20016;-72
2023/04/06 01:47:16;;;;;;;11.90;7.40;;;;;;;;;;5284517;28;20099;-71
2023/04/06 01:49:47;;;;;;;9.23;6.50;;;;;;;;;;5284939;28;20024;-71
2023/04/06 01:52:18;;;;;;;11.30;7.22;;;;;;;;;;5284698;28;20190;-71
2023/04/06 01:54:50;;;;;;;12.95;7.78;;;;;;;;;;5284556;28;20027;-71
2023/04/06 01:57:21;;;;;;;11.55;6.78;;;;;;;;;;5285093;28;20104;-71
2023/04/06 01:59:52;;;;;;;10.20;7.22;;;;;;;;;;5283697;28;20028;-72
2023/04/06 02:02:24;;;;;;;12.50;8.23;;;;;;;;;;5285048;28;20013;-72
2023/04/06 02:04:55;;;;;;;11.95;7.20;;;;;;;;;;5284580;28;20485;-71
2023/04/06 02:07:26;;;;;;;12.05;8.13;;;;;;;;;;5284323;28;20035;-71
2023/04/06 02:09:58;;;;;;;9.27;7.20;;;;;;;;;;5284147;28;20024;-71
2023/04/06 02:12:29;;;;;;;12.63;7.47;;;;;;;;;;5285024;28;20020;-72
2023/04/06 02:15:00;;;;;;;13.10;8.60;;;;;;;;;;5283741;28;20078;-72
2023/04/06 02:17:31;;;;;;;13.60;8.57;;;;;;;;;;5284526;28;20040;-72
2023/04/06 02:20:02;;;;;;;11.40;7.82;;;;;;;;;;5283479;28;20020;-71
2023/04/06 02:22:37;;;;;;;13.32;8.18;;;;;;;;;;5284070;28;20056;-71
2023/04/06 02:25:08;;;;;;;14.73;9.55;;;;;;;;;;5284444;28;20012;-71
2023/04/06 02:27:39;;;;;;;13.95;8.60;;;;;;;;;;5283395;28;20489;-72
2023/04/06 02:30:11;;;;;;;13.07;9.05;;;;;;;;;;5284874;28;20042;-72
2023/04/06 02:32:42;;;;;;;15.80;9.02;;;;;;;;;;5283690;28;20032;-72
2023/04/06 02:35:13;;;;;;;18.88;10.46;;;;;;;;;;5283628;28;20027;-72
2023/04/06 02:37:44;;;;;;;13.36;9.06;;;;;;;;;;5283982;28;20060;-72
2023/04/06 02:40:15;;;;;;;12.50;9.15;;;;;;;;;;5284475;28;20017;-72
2023/04/06 02:42:46;;;;;;;14.63;9.43;;;;;;;;;;5282988;28;20016;-72
2023/04/06 02:45:18;;;;;;;14.55;9.48;;;;;;;;;;5284139;28;20027;-71
2023/04/06 02:47:49;;;;;;;14.27;9.32;;;;;;;;;;5283498;28;20036;-71
2023/04/06 02:50:20;;;;;;;15.25;10.07;;;;;;;;;;5283214;28;20052;-71
2023/04/06 02:52:52;;;;;;;15.98;9.94;;;;;;;;;;5283515;28;20573;-71
2023/04/06 02:55:23;;;;;;;14.93;10.20;;;;;;;;;;5283101;28;20489;-71
2023/04/06 02:57:55;;;;;;;14.50;9.63;;;;;;;;;;5283203;28;20057;-72
2023/04/06 03:00:26;;;;;;;16.38;11.45;;;;;;;;;;5283829;28;20021;-71
2023/04/06 03:02:57;;;;;;;15.60;11.15;;;;;;;;;;5282322;28;20581;-72
2023/04/06 03:05:28;;;;;;;15.63;10.52;;;;;;;;;;5283886;28;20461;-71
2023/04/06 03:07:59;;;;;;;14.65;10.10;;;;;;;;;;5283292;28;20024;-71
2023/04/06 03:10:31;;;;;;;15.65;11.30;;;;;;;;;;5282544;28;20035;-73
2023/04/06 03:13:02;;;;;;;16.12;10.92;;;;;;;;;;5283408;28;20024;-72
2023/04/06 03:15:33;;;;;;;17.33;11.52;;;;;;;;;;5283214;28;20017;-72
2023/04/06 03:18:04;;;;;;;15.57;10.55;;;;;;;;;;5282240;28;20506;-71
2023/04/06 03:20:35;;;;;;;15.38;10.30;;;;;;;;;;5283275;28;20367;-71
2023/04/06 03:23:06;;;;;;;14.60;9.93;;;;;;;;;;5282772;28;20060;-70
2023/04/06 03:25:39;;;;;;;16.27;10.85;;;;;;;;;;5282139;28;20043;-71
2023/04/06 03:28:10;;;;;;;15.65;10.73;;;;;;;;;;5283373;28;20016;-71
2023/04/06 03:30:41;;;;;;;18.34;12.02;;;;;;;;;;5281831;28;20029;-71
2023/04/06 03:33:12;;;;;;;16.05;10.77;;;;;;;;;;5282516;28;20020;-71
2023/04/06 03:35:44;;;;;;;17.24;11.56;;;;;;;;;;5282776;28;20028;-72
2023/04/06 03:38:15;;;;;;;15.38;10.90;;;;;;;;;;5282162;28;20031;-71
2023/04/06 03:40:46;;;;;;;14.27;10.63;;;;;;;;;;5282595;28;20490;-71
2023/04/06 03:43:18;;;;;;;16.88;11.05;;;;;;;;;;5282980;28;20021;-71
2023/04/06 03:45:49;;;;;;;14.05;10.40;;;;;;;;;;5281493;28;20016;-71
2023/04/06 03:48:20;;;;;;;14.38;11.07;;;;;;;;;;5283244;28;20478;-71
2023/04/06 03:50:51;;;;;;;15.85;11.52;;;;;;;;;;5282490;28;20024;-71
2023/04/06 03:53:22;;;;;;;18.05;11.95;;;;;;;;;;5282085;28;20024;-71
2023/04/06 03:55:54;;;;;;;16.42;10.72;;;;;;;;;;5282019;28;20433;-71
2023/04/06 03:58:25;;;;;;;15.63;10.05;;;;;;;;;;5282115;28;20410;-71
2023/04/06 04:00:56;;;;;;;17.85;10.98;;;;;;;;;;5282121;28;20579;-71
2023/04/06 04:03:27;;;;;;;17.77;10.88;;;;;;;;;;5282609;28;20042;-71
2023/04/06 04:05:58;;;;;;;17.75;10.93;;;;;;;;;;5281218;28;20016;-72
2023/04/06 04:08:30;;;;;;;15.92;11.12;;;;;;;;;;5282723;28;20506;-71
2023/04/06 04:11:01;;;;;;;16.67;11.90;;;;;;;;;;5282083;28;20367;-71
2023/04/06 04:13:32;;;;;;;14.82;11.80;;;;;;;;;;5281510;28;20020;-71
2023/04/06 04:16:03;;;;;;;15.02;11.85;;;;;;;;;;5282280;28;20379;-70
2023/04/06 04:18:34;;;;;;;15.80;11.63;;;;;;;;;;5282102;28;20047;-71
2023/04/06 04:21:06;;;;;;;14.68;11.50;;;;;;;;;;5281285;28;20066;-71
2023/04/06 04:23:37;;;;;;;13.98;10.95;;;;;;;;;;5282261;28;20057;-71
2023/04/06 04:26:08;;;;;;;16.60;10.80;;;;;;;;;;5282856;28;20024;-72
2023/04/06 04:28:40;;;;;;;16.92;11.70;;;;;;;;;;5281046;28;20028;-71
2023/04/06 04:31:11;;;;;;;20.95;12.38;;;;;;;;;;5282232;28;20539;-71
2023/04/06 04:33:42;;;;;;;17.48;11.05;;;;;;;;;;5280595;28;20032;-71
2023/04/06 04:36:13;;;;;;;17.25;11.43;;;;;;;;;;5282354;28;20025;-71
2023/04/06 04:38:44;;;;;;;16.90;11.60;;;;;;;;;;5281611;28;20078;-71
2023/04/06 04:41:16;;;;;;;15.55;10.35;;;;;;;;;;5281614;28;20020;-72
2023/04/06 04:43:47;;;;;;;14.44;10.80;;;;;;;;;;5281517;28;20025;-71
2023/04/06 04:46:18;;;;;;;14.95;10.88;;;;;;;;;;5282113;28;20023;-73
2023/04/06 04:48:49;;;;;;;17.76;10.40;;;;;;;;;;5281069;28;20021;-70
2023/04/06 04:51:20;;;;;;;16.45;11.05;;;;;;;;;;5282067;28;20023;-71
2023/04/06 04:53:51;;;;;;;14.27;10.52;;;;;;;;;;5281411;28;20124;-71
2023/04/06 04:56:23;;;;;;;16.17;11.65;;;;;;;;;;5280794;28;20024;-71
2023/04/06 04:58:54;;;;;;;16.63;11.10;;;;;;;;;;5281218;28;20028;-71
2023/04/06 05:01:25;;;;;;;15.63;11.13;;;;;;;;;;5282014;28;20020;-72
2023/04/06 05:03:56;;;;;;;15.30;11.10;;;;;;;;;;5280467;28;20028;-71
2023/04/06 05:06:27;;;;;;;17.20;11.60;;;;;;;;;;5281900;28;20456;-72
2023/04/06 05:08:59;;;;;;;15.06;11.24;;;;;;;;;;5280680;28;20074;-71
2023/04/06 05:11:30;;;;;;;18.73;11.68;;;;;;;;;;5281273;28;20071;-72
2023/04/06 05:14:01;;;;;;;14.68;10.32;;;;;;;;;;5281491;28;20032;-71
2023/04/06 05:16:33;;;;;;;16.67;10.77;;;;;;;;;;5280582;28;20463;-72
2023/04/06 05:19:05;;;;;;;14.98;9.63;;;;;;;;;;5281148;28;20039;-70
2023/04/06 05:21:36;;;;;;;12.98;9.95;;;;;;;;;;5281031;28;20452;-71
2023/04/06 05:24:08;;;;;;;14.35;9.07;;;;;;;;;;5280538;28;20040;-71
2023/04/06 05:26:39;;;;;;;14.50;9.80;;;;;;;;;;5281105;28;20340;-72
2023/04/06 05:29:11;;;;;;;16.35;9.48;;;;;;;;;;5281717;28;20032;-71
2023/04/06 05:31:43;;;;;;;13.35;9.30;;;;;;;;;;5280230;28;20020;-72
2023/04/06 05:34:14;;;;;;;14.75;10.48;;;;;;;;;;5281427;28;20031;-72
2023/04/06 05:36:45;;;;;;;15.35;10.52;;;;;;;;;;5281035;28;20370;-72
2023/04/06 05:39:16;;;;;;;16.00;10.95;;;;;;;;;;5280613;28;20063;-72
2023/04/06 05:41:48;;;;;;;21.98;11.75;;;;;;;;;;5280843;28;20027;-70
2023/04/06 05:44:20;;;;;;;15.57;10.65;;;;;;;;;;5280633;28;20095;-71
2023/04/06 05:46:51;;;;;;;18.00;11.63;;;;;;;;;;5280548;28;20052;-71
2023/04/06 05:49:22;;;;;;;18.83;11.48;;;;;;;;;;5281628;28;20386;-72
2023/04/06 05:51:53;;;;;;;18.25;11.10;;;;;;;;;;5280096;28;20107;-71
2023/04/06 05:54:24;;;;;;;18.40;11.40;;;;;;;;;;5281238;28;20020;-71
2023/04/06 05:56:55;;;;;;;15.52;10.75;;;;;;;;;;5283988;28;20090;-71
2023/04/06 05:59:27;;;;;;;16.20;11.05;;;;;;;;;;5284095;28;20459;-71
2023/04/06 06:01:58;;;;;;;16.42;10.85;;;;;;;;;;5284478;28;20103;-72
2023/04/06 06:04:30;;;;;;;16.67;10.43;;;;;;;;;;5284513;28;20452;-72
2023/04/06 06:07:01;;;;;;;18.15;12.00;;;;;;;;;;5283694;28;20041;-72
2023/04/06 06:09:32;;;;;;;13.95;9.80;;;;;;;;;;5284465;28;20052;-71
2023/04/06 06:12:03;;;;;;;16.55;11.18;;;;;;;;;;5284055;28;20038;-73
2023/04/06 06:14:35;;;;;;;17.17;11.20;;;;;;;;;;5284343;28;20056;-72
2023/04/06 06:17:06;;;;;;;17.90;11.07;;;;;;;;;;5284334;28;20021;-72
2023/04/06 06:19:37;;;;;;;19.55;11.23;;;;;;;;;;5283389;28;20050;-73
2023/04/06 06:22:08;;;;;;;19.92;11.48;;;;;;;;;;5284289;28;20102;-72
2023/04/06 06:24:39;;;;;;;14.32;9.95;;;;;;;;;;5283954;28;20059;-72
2023/04/06 06:27:11;;;;;;;15.88;10.50;;;;;;;;;;5283667;28;20017;-71
2023/04/06 06:29:42;;;;;;;17.15;10.98;;;;;;;;;;5283935;28;20463;-71
2023/04/06 06:32:13;;;;;;;13.10;10.25;;;;;;;;;;5284119;28;20024;-72
2023/04/06 06:34:45;;;;;;;16.75;11.13;;;;;;;;;;5282762;28;20474;-72
2023/04/06 06:37:16;;;;;;;18.92;11.27;;;;;;;;;;5284101;28;20028;-72
2023/04/06 06:39:47;;;;;;;15.90;10.52;;;;;;;;;;5283646;28;20032;-71
2023/04/06 06:42:18;;;;;;;17.30;11.30;;;;;;;;;;5283426;28;20455;-74
2023/04/06 06:44:49;;;;;;;13.93;10.32;;;;;;;;;;5283434;28;20414;-72
2023/04/06 06:47:21;;;;;;;12.98;9.82;;;;;;;;;;5283158;28;20029;-72
2023/04/06 06:49:52;;;;;;;13.75;9.63;;;;;;;;;;5283509;28;20490;-73
2023/04/06 06:52:23;;;;;;;16.25;11.25;;;;;;;;;;5284055;28;20016;-72
2023/04/06 06:54:56;;;;;;;16.63;10.85;;;;;;;;;;5282159;28;20074;-71
2023/04/06 06:57:27;;;;;;;15.93;10.20;;;;;;;;;;5283672;28;20028;-72
2023/04/06 06:59:59;;;;;;;12.45;10.13;;;;;;;;;;5283191;28;20025;-71
2023/04/06 07:02:30;;;;;;;13.93;10.85;;;;;;;;;;5282766;28;20470;-72
2023/04/06 07:05:02;;;;;;;15.80;11.57;;;;;;;;;;5283630;28;20029;-72
2023/04/06 07:07:34;;;;;;;16.15;10.98;;;;;;;;;;5282425;28;20020;-72
2023/04/06 07:10:05;;;;;;;16.40;11.07;;;;;;;;;;5282544;28;20020;-72
2023/04/06 07:12:36;;;;;;;20.58;11.82;;;;;;;;;;5282932;28;20024;-73
2023/04/06 07:15:08;;;;;;;16.35;10.30;;;;;;;;;;5283292;28;20030;-71
2023/04/06 07:17:41;;;;;;;17.70;11.20;;;;;;;;;;5281957;28;20448;-71
2023/04/06 07:20:12;;;;;;;13.48;10.07;;;;;;;;;;5283297;28;20032;-72
2023/04/06 07:22:44;;;;;;;14.77;10.20;;;;;;;;;;5281699;28;20383;-71
2023/04/06 07:25:15;;;;;;;15.52;11.55;;;;;;;;;;5283359;28;20021;-70
2023/04/06 07:27:47;;;;;;;16.13;12.00;;;;;;;;;;5282803;28;20046;-70
2023/04/06 07:30:19;;;;;;;17.90;10.82;;;;;;;;;;5282227;28;20027;-71
2023/04/06 07:32:50;;;;;;;13.15;10.07;;;;;;;;;;5282364;28;20374;-71
2023/04/06 07:35:22;;;;;;;12.80;9.02;;;;;;;;;;5283063;28;20066;-71
2023/04/06 07:37:54;;;;;;;17.58;10.52;;;;;;;;;;5281813;28;20020;-71
2023/04/06 07:40:26;;;;;;;14.45;9.98;;;;;;;;;;5282984;28;20015;-70
2023/04/06 07:42:57;;;;;;;18.70;11.75;;;;;;;;;;5282392;28;20024;-69
2023/04/06 07:45:29;;;;;;;12.95;9.63;;;;;;;;;;5281693;28;20451;-71
2023/04/06 07:48:00;;;;;;;16.92;10.98;;;;;;;;;;5282491;28;20013;-71
2023/04/06 07:50:31;;;;;;;14.90;10.27;;;;;;;;;;5282013;28;20016;-70
2023/04/06 07:53:03;;;;;;;15.65;10.98;;;;;;;;;;5282301;28;20031;-70
2023/04/06 07:55:34;;;;;;;15.60;10.48;;;;;;;;;;5281324;28;20033;-70
2023/04/06 07:58:05;;;;;;;13.65;10.20;;;;;;;;;;5281464;28;20032;-71
2023/04/06 08:00:36;;;;;;;15.02;10.32;;;;;;;;;;5281956;28;20048;-70
2023/04/06 08:03:07;;;;;;;14.73;9.73;;;;;;;;;;5282266;28;20442;-70
2023/04/06 08:05:39;;;;;;;13.56;9.78;;;;;;;;;;5281228;28;20031;-70
2023/04/06 08:08:10;;;;;;;17.83;10.25;;;;;;;;;;5282171;28;20070;-71
2023/04/06 08:10:41;;;;;;;17.05;10.93;;;;;;;;;;5281683;28;20036;-71
2023/04/06 08:13:12;;;;;;;14.82;9.75;;;;;;;;;;5281654;28;20078;-70
2023/04/06 08:15:44;;;;;;;13.02;9.65;;;;;;;;;;5281898;28;20472;-70
2023/04/06 08:18:15;;;;;;;16.98;10.63;;;;;;;;;;5281478;28;20032;-70
2023/04/06 08:20:46;;;;;;;13.25;9.13;;;;;;;;;;5278315;28;20025;-70
2023/04/06 08:23:17;;;;;;;16.58;10.70;;;;;;;;;;5281540;28;20054;-70
2023/04/06 08:25:48;;;;;;;15.38;10.10;;;;;;;;;;5280505;28;20428;-69
2023/04/06 08:28:21;;;;;;;17.85;10.07;;;;;;;;;;5282355;28;20017;-69
2023/04/06 08:30:52;;;;;;;14.05;10.63;;;;;;;;;;5281509;28;20467;-68
2023/04/06 08:33:23;;;;;;;15.35;11.23;;;;;;;;;;5281293;28;20031;-70
2023/04/06 08:35:54;;;;;;;15.35;10.27;;;;;;;;;;5281499;28;20008;-69
2023/04/06 08:38:26;;;;;;;15.63;10.13;;;;;;;;;;5281635;28;20043;-69
2023/04/06 08:40:57;;;;;;;14.93;10.38;;;;;;;;;;5280481;28;20432;-69
2023/04/06 08:43:29;;;;;;;14.60;10.60;;;;;;;;;;5281930;28;20024;-69
2023/04/06 08:46:00;;;;;;;14.57;10.63;;;;;;;;;;5281358;28;20043;-70
2023/04/06 08:48:32;;;;;;;13.95;10.63;;;;;;;;;;5280992;28;20021;-69
2023/04/06 08:51:04;;;;;;;14.68;10.40;;;;;;;;;;5281722;28;20016;-70
2023/04/06 08:53:36;;;;;;;16.85;11.70;;;;;;;;;;5281514;28;20107;-73
2023/04/06 08:56:08;;;;;;;16.63;11.25;;;;;;;;;;5280598;28;20017;-71
2023/04/06 08:58:40;;;;;;;16.30;10.25;;;;;;;;;;5281200;28;20068;-70
2023/04/06 09:01:13;;;;;;;16.05;11.60;;;;;;;;;;5280638;28;20052;-71
2023/04/06 09:03:45;;;;;;;18.13;11.73;;;;;;;;;;5281341;28;20025;-70
2023/04/06 09:06:16;;;;;;;16.15;10.95;;;;;;;;;;5281863;28;20015;-71
2023/04/06 09:08:48;;;;;;;18.45;11.15;;;;;;;;;;5280307;28;20024;-70
2023/04/06 09:11:19;;;;;;;16.02;11.35;;;;;;;;;;5281981;28;20028;-70
2023/04/06 09:13:52;;;;;;;16.95;12.07;;;;;;;;;;5281161;28;20017;-70
2023/04/06 09:16:23;;;;;;;18.70;12.20;;;;;;;;;;5279123;28;20494;-71
2023/04/06 09:18:54;;;;;;;15.07;11.60;;;;;;;;;;5278775;28;20032;-71
2023/04/06 09:21:25;;;;;;;14.20;10.94;;;;;;;;;;5279102;28;20048;-71
2023/04/06 09:24:00;;;;;;;14.32;10.95;;;;;;;;;;5278141;28;20248;-74
2023/04/06 09:26:33;;;;;;;16.55;12.30;;;;;;;;;;5279104;28;20013;-71
2023/04/06 09:29:06;;;;;;;15.02;11.05;;;;;;;;;;5278130;28;20032;-71
2023/04/06 09:31:37;;;;;;;16.80;12.73;;;;;;;;;;5283645;28;20363;-71
2023/04/06 09:34:08;;;;;;;16.02;11.25;;;;;;;;;;5285739;28;20024;-71
2023/04/06 09:36:41;;;;;;;17.13;10.95;;;;;;;;;;5284175;28;20055;-71
2023/04/06 09:39:12;;;;;;;15.25;11.10;;;;;;;;;;5285487;28;20487;-71
2023/04/06 09:41:48;;;;;;;14.40;10.45;;;;;;;;;;5284715;28;20016;-71
2023/04/06 09:44:20;;;;;;;14.23;10.30;;;;;;;;;;5284436;28;20040;-71
2023/04/06 09:46:53;;;;;;;13.13;9.13;;;;;;;;;;5284692;28;20044;-70
2023/04/06 09:49:25;;;;;;;13.65;8.95;;;;;;;;;;5285402;28;20009;-70
2023/04/06 09:52:01;;;;;;;14.13;9.35;;;;;;;;;;5283837;28;20044;-71
2023/04/06 09:54:34;;;;;;;11.85;8.40;;;;;;;;;;5284606;28;20463;-71
2023/04/06 09:57:20;;;;;;;12.52;9.07;;;;;;;;;;5284703;28;20019;-71
2023/04/06 10:00:14;;;;;;;10.25;8.15;;;;;;;;;;5284287;28;20029;-71
2023/04/06 10:02:45;;;;;;;10.70;7.65;;;;;;;;;;5284452;28;20024;-71
2023/04/06 10:05:17;;;;;;;9.43;7.45;;;;;;;;;;5284173;28;20085;-71
2023/04/06 10:07:50;;;;;;;11.22;8.04;;;;;;;;;;5284256;28;20366;-71
2023/04/06 10:10:21;;;;;;;10.80;7.97;;;;;;;;;;5284951;28;20013;-71
2023/04/06 10:12:53;;;;;;;10.52;7.18;;;;;;;;;;5283333;28;20009;-71
2023/04/06 10:15:25;;;;;;;10.70;7.90;;;;;;;;;;5284624;28;20039;-71
2023/04/06 10:17:57;;;;;;;12.98;7.80;;;;;;;;;;5283872;28;20067;-72
2023/04/06 10:20:38;;;;;;;11.27;7.57;;;;;;;;;;5283804;28;20052;-71
2023/04/06 10:23:28;;;;;;;11.68;6.60;;;;;;;;;;5284045;28;20055;-71
2023/04/06 10:26:00;;;;;;;11.57;7.78;;;;;;;;;;5282725;28;20033;-70
2023/04/06 10:28:32;;;;;;;8.70;7.00;;;;;;;;;;5284329;28;20094;-70
2023/04/06 10:31:07;;;;;;;10.45;6.90;;;;;;;;;;5284436;28;20439;-70
2023/04/06 10:33:38;;;;;;;10.10;6.80;;;;;;;;;;5283013;28;20020;-72
2023/04/06 10:36:13;;;;;;;8.52;6.60;;;;;;;;;;5284151;28;20024;-70
2023/04/06 10:38:45;;;;;;;7.20;6.03;;;;;;;;;;5283315;28;20036;-69
2023/04/06 10:41:16;;;;;;;8.60;6.25;;;;;;;;;;5283072;28;20040;-69
2023/04/06 10:43:54;;;;;;;12.93;7.00;;;;;;;;;;5283361;28;20494;-70
2023/04/06 10:46:27;;;;;;;9.45;6.68;;;;;;;;;;5283280;28;20523;-70
2023/04/06 10:49:09;;;;;;;8.73;6.05;;;;;;;;;;5283280;28;20422;-69
2023/04/06 10:51:40;;;;;;;8.93;6.05;;;;;;;;;;5283332;28;20026;-70
2023/04/06 10:54:13;;;;;;;9.15;5.03;;;;;;;;;;5283063;28;20201;-71
2023/04/06 10:56:44;;;;;;;7.85;5.78;;;;;;;;;;5283209;28;20066;-71
2023/04/06 10:59:22;;;;;;;6.60;4.63;;;;;;;;;;5283703;28;20032;-70
2023/04/06 11:01:55;;;;;;;7.80;4.90;;;;;;;;;;5282490;28;20024;-71
2023/04/06 11:04:26;;;;;;;7.75;5.35;;;;;;;;;;5283682;28;20525;-70
2023/04/06 11:06:58;;;;;;;7.05;4.32;;;;;;;;;;5282870;28;20036;-70
2023/04/06 11:09:31;;;;;;;5.45;4.10;;;;;;;;;;5282759;28;20025;-70
2023/04/06 11:12:02;;;;;;;8.88;4.60;;;;;;;;;;5283463;28;20059;-69
2023/04/06 11:14:33;;;;;;;5.13;4.38;;;;;;;;;;5282735;28;20065;-70
2023/04/06 11:17:05;;;;;;;7.25;5.25;;;;;;;;;;5283203;28;20016;-69
2023/04/06 11:19:36;;;;;;;9.63;5.22;;;;;;;;;;5283167;28;20036;-69
2023/04/06 11:22:07;;;;;;;7.28;5.13;;;;;;;;;;5282168;28;20403;-69
2023/04/06 11:24:38;;;;;;;8.43;5.38;;;;;;;;;;5282409;28;20107;-70
2023/04/06 11:27:09;;;;;;;10.50;6.25;;;;;;;;;;5285332;28;20028;-69
2023/04/06 11:29:41;;;;;;;6.78;5.38;;;;;;;;;;5281959;28;20485;-69
2023/04/06 11:32:19;;;;;;;6.82;4.93;;;;;;;;;;5278031;28;20473;-69
2023/04/06 11:34:51;;;;;;;6.43;4.95;;;;;;;;;;5282014;28;20029;-69
2023/04/06 11:37:25;;;;;;;7.26;5.36;;;;;;;;;;5282348;28;20077;-69
2023/04/06 11:39:57;;;;;;;7.50;5.20;;;;;;;;;;5282618;28;20423;-69
2023/04/06 11:42:29;;;;;;;6.32;5.30;;;;;;;;;;5282907;28;20043;-68
2023/04/06 11:45:00;;;;;;;8.18;5.72;;;;;;;;;;5281433;28;20025;-69
2023/04/06 11:47:35;;;;;;;6.85;5.00;;;;;;;;;;5281562;28;20366;-70
2023/04/06 11:50:08;;;;;;;7.25;5.38;;;;;;;;;;5281407;28;20137;-70
2023/04/06 11:52:39;;;;;;;7.10;5.40;;;;;;;;;;5280592;28;20048;-69
2023/04/06 11:55:18;;;;;;;7.20;6.35;;;;;;;;;;5282392;28;20060;-71
2023/04/06 11:57:49;;;;;;;6.57;5.38;;;;;;;;;;5280593;28;20098;-68
2023/04/06 12:00:21;;;;;;;7.15;5.68;;;;;;;;;;5282839;28;20024;-69
2023/04/06 12:02:52;;;;;;;8.07;5.97;;;;;;;;;;5281886;28;20044;-71
2023/04/06 12:05:24;;;;;;;7.68;6.30;;;;;;;;;;5281715;28;20481;-71
2023/04/06 12:07:56;;;;;;;6.60;5.90;;;;;;;;;;5281910;28;20021;-71
2023/04/06 12:10:27;;;;;;;9.07;6.13;;;;;;;;;;5282831;28;20104;-71
2023/04/06 12:12:58;;;;;;;10.57;7.25;;;;;;;;;;5281611;28;20047;-71
2023/04/06 12:15:30;;;;;;;7.15;6.22;;;;;;;;;;5282565;28;20021;-71
2023/04/06 12:18:01;;;;;;;7.63;5.82;;;;;;;;;;5281337;28;20056;-71
2023/04/06 12:20:32;;;;;;;7.72;6.03;;;;;;;;;;5282004;28;20764;-72
2023/04/06 12:23:03;;;;;;;7.35;5.93;;;;;;;;;;5281915;28;20490;-72
2023/04/06 12:25:35;;;;;;;7.13;5.82;;;;;;;;;;5281401;28;20013;-71
2023/04/06 12:28:06;;;;;;;7.95;5.68;;;;;;;;;;5282206;28;20025;-71
2023/04/06 12:30:37;;;;;;;7.10;5.63;;;;;;;;;;5281871;28;20013;-72
2023/04/06 12:33:09;;;;;;;7.00;5.60;;;;;;;;;;5281276;28;20017;-71
2023/04/06 12:35:40;;;;;;;7.47;6.15;;;;;;;;;;5281833;28;20413;-72
2023/04/06 12:38:11;;;;;;;8.48;5.53;;;;;;;;;;5282136;28;20047;-71
2023/04/06 12:40:43;;;;;;;6.72;5.30;;;;;;;;;;5280992;28;20352;-70
2023/04/06 12:43:14;;;;;;;6.95;6.05;;;;;;;;;;5281816;28;20024;-71
2023/04/06 12:45:45;;;;;;;8.38;6.53;;;;;;;;;;5281547;28;20016;-71
2023/04/06 12:48:17;;;;;;;9.20;5.78;;;;;;;;;;5281445;28;20505;-71
2023/04/06 12:50:57;;;;;;;6.18;5.40;;;;;;;;;;5281703;28;20049;-71
2023/04/06 12:53:28;;;;;;;6.68;5.82;;;;;;;;;;5281217;28;20701;-71
2023/04/06 12:56:00;;;;;;;8.27;5.68;;;;;;;;;;5281413;28;20087;-70
2023/04/06 12:58:31;;;;;;;7.43;5.40;;;;;;;;;;5281871;28;20071;-70
2023/04/06 13:01:05;;;;;;;6.82;5.78;;;;;;;;;;5280983;28;20099;-71
2023/04/06 13:03:36;;;;;;;7.93;5.53;;;;;;;;;;5281826;28;20020;-71
2023/04/06 13:06:08;;;;;;;7.82;6.30;;;;;;;;;;5284196;28;20024;-71
2023/04/06 13:08:39;;;;;;;6.88;5.70;;;;;;;;;;5284979;28;20096;-71
2023/04/06 13:11:11;;;;;;;7.60;5.90;;;;;;;;;;5286089;28;20016;-71
2023/04/06 13:13:42;;;;;;;6.90;5.60;;;;;;;;;;5285713;28;20429;-71
2023/04/06 13:16:15;;;;;;;6.18;5.07;;;;;;;;;;5284999;28;20017;-70
2023/04/06 13:18:46;;;;;;;7.85;5.32;;;;;;;;;;5285264;28;20052;-71
2023/04/06 13:21:17;;;;;;;5.88;5.00;;;;;;;;;;5285054;28;20422;-71
2023/04/06 13:23:48;;;;;;;6.22;5.15;;;;;;;;;;5285312;28;20437;-71
2023/04/06 13:26:19;;;;;;;6.24;5.18;;;;;;;;;;5285796;28;20028;-71
2023/04/06 13:28:51;;;;;;;6.13;4.88;;;;;;;;;;5284431;28;20017;-71
2023/04/06 13:31:22;;;;;;;7.65;5.10;;;;;;;;;;5284565;28;20024;-71
2023/04/06 13:33:53;;;;;;;7.50;5.50;;;;;;;;;;5284862;28;20032;-70
2023/04/06 13:36:26;;;;;;;6.45;5.03;;;;;;;;;;5284530;28;20103;-71
2023/04/06 13:38:58;;;;;;;7.47;5.57;;;;;;;;;;5284744;28;20042;-70
2023/04/06 13:41:30;;;;;;;7.35;5.68;;;;;;;;;;5285228;28;20510;-71
2023/04/06 13:44:01;;;;;;;7.05;5.63;;;;;;;;;;5284329;28;20048;-71
2023/04/06 13:46:32;;;;;;;9.27;6.10;;;;;;;;;;5285110;28;20378;-71
2023/04/06 13:49:04;;;;;;;6.22;5.25;;;;;;;;;;5285210;28;20028;-72
2023/04/06 13:51:35;;;;;;;8.20;5.93;;;;;;;;;;5283867;28;20019;-73
2023/04/06 13:54:06;;;;;;;6.85;5.35;;;;;;;;;;5284379;28;20016;-72
2023/04/06 13:56:37;;;;;;;6.46;5.10;;;;;;;;;;5284009;28;20012;-73
2023/04/06 13:59:09;;;;;;;6.85;5.30;;;;;;;;;;5285191;28;20024;-72
2023/04/06 14:01:40;;;;;;;7.32;5.57;;;;;;;;;;5284421;28;20012;-72
2023/04/06 14:04:11;;;;;;;7.25;5.40;;;;;;;;;;5284415;28;20344;-72
2023/04/06 14:06:44;;;;;;;7.28;5.74;;;;;;;;;;5284450;28;20025;-72
2023/04/06 14:09:15;;;;;;;5.85;5.22;;;;;;;;;;5285109;28;20028;-72
2023/04/06 14:11:46;;;;;;;7.72;5.65;;;;;;;;;;5283681;28;20021;-72
2023/04/06 14:14:18;;;;;;;7.15;5.55;;;;;;;;;;5284810;28;20019;-72
2023/04/06 14:16:49;;;;;;;6.53;5.50;;;;;;;;;;5283911;28;20025;-72
2023/04/06 14:19:21;;;;;;;6.95;6.30;;;;;;;;;;5284086;28;20035;-72
2023/04/06 14:21:53;;;;;;;7.38;6.05;;;;;;;;;;5284176;28;20056;-71
2023/04/06 14:24:24;;;;;;;6.07;5.45;;;;;;;;;;5283665;28;20039;-72
2023/04/06 14:26:56;;;;;;;6.32;5.65;;;;;;;;;;5284096;28;20020;-72
2023/04/06 14:29:27;;;;;;;7.97;5.95;;;;;;;;;;5284627;28;20013;-72
2023/04/06 14:32:02;;;;;;;8.27;6.70;;;;;;;;;;5283021;28;20036;-71
2023/04/06 14:34:33;;;;;;;6.50;5.68;;;;;;;;;;5284196;28;20025;-71
2023/04/06 14:37:05;;;;;;;7.18;5.53;;;;;;;;;;5284027;28;20466;-71
2023/04/06 14:39:36;;;;;;;7.97;6.38;;;;;;;;;;5283408;28;20090;-71
2023/04/06 14:42:07;;;;;;;6.74;6.04;;;;;;;;;;5283859;28;20016;-72
2023/04/06 14:44:42;;;;;;;7.20;6.43;;;;;;;;;;5283944;28;20095;-72
2023/04/06 14:47:15;;;;;;;7.47;6.38;;;;;;;;;;5283467;28;20020;-72
2023/04/06 14:49:50;;;;;;;7.18;6.47;;;;;;;;;;5283633;28;20039;-73
2023/04/06 14:52:21;;;;;;;7.35;6.35;;;;;;;;;;5284240;28;20111;-73
2023/04/06 14:54:52;;;;;;;7.78;6.53;;;;;;;;;;5282511;28;20092;-73